createdAt,value
2018-08-28T00:01:33.325Z,98601.95
2018-08-28T00:04:00.521Z,98599.81
2018-08-28T00:06:27.754Z,98605.97
2018-08-28T00:08:54.997Z,98609.91
2018-08-28T00:11:22.262Z,98616.00
2018-08-28T00:13:49.567Z,98616.94
2018-08-28T00:16:16.793Z,98612.22
2018-08-28T00:21:53.462Z,98615.48
2018-08-28T00:24:20.682Z,98625.01
2018-08-28T00:26:47.889Z,98619.78
2018-08-28T00:29:15.089Z,98627.81
2018-08-28T00:31:42.312Z,98633.12
2018-08-28T00:34:09.505Z,98634.69
2018-08-28T00:36:36.928Z,98628.87
2018-08-28T00:39:04.922Z,98634.50
2018-08-28T00:41:32.145Z,98636.95
2018-08-28T00:43:59.369Z,98645.16
2018-08-28T00:46:26.597Z,98642.78
2018-08-28T00:48:53.801Z,98651.91
2018-08-28T00:51:21.058Z,98650.05
2018-08-28T00:53:48.278Z,98658.79
2018-08-28T00:56:15.506Z,98656.68
2018-08-28T00:58:49.279Z,98652.58
2018-08-28T01:01:16.523Z,98655.62
2018-08-28T01:03:43.767Z,98658.67
2018-08-28T01:06:10.993Z,98662.77
2018-08-28T01:08:38.222Z,98661.59
2018-08-28T01:11:06.041Z,98666.66
2018-08-28T01:13:33.286Z,98666.78
2018-08-28T01:16:00.500Z,98676.06
2018-08-28T01:18:27.783Z,98680.19
2018-08-28T01:20:54.987Z,98674.61
2018-08-28T01:23:22.224Z,98679.78
2018-08-28T01:25:49.418Z,98682.97
2018-08-28T01:28:16.725Z,98687.89
2018-08-28T01:30:43.929Z,98689.75
2018-08-28T01:33:11.160Z,98690.73
2018-08-28T01:35:38.362Z,98693.38
2018-08-28T01:38:05.590Z,98699.90
2018-08-28T01:40:32.782Z,98700.76
2018-08-28T01:43:00.297Z,98698.50
2018-08-28T01:45:27.585Z,98698.50
2018-08-28T01:47:54.853Z,98705.27
2018-08-28T01:50:22.138Z,98701.28
2018-08-28T01:52:49.441Z,98704.33
2018-08-28T01:55:16.642Z,98710.50
2018-08-28T01:57:43.884Z,98716.66
2018-08-28T02:00:11.138Z,98707.77
2018-08-28T02:02:38.531Z,98709.64
2018-08-28T02:05:06.065Z,98716.73
2018-08-28T02:07:33.305Z,98721.58
2018-08-28T02:10:00.506Z,98714.95
2018-08-28T02:12:27.759Z,98720.97
2018-08-28T02:14:55.186Z,98715.23
2018-08-28T02:17:22.417Z,98719.20
2018-08-28T02:19:49.618Z,98713.55
2018-08-28T02:22:16.849Z,98722.83
2018-08-28T02:24:44.046Z,98721.86
2018-08-28T02:27:11.269Z,98720.11
2018-08-28T02:29:38.466Z,98721.43
2018-08-28T02:32:05.731Z,98728.20
2018-08-28T02:34:32.947Z,98722.91
2018-08-28T02:37:00.182Z,98719.86
2018-08-28T02:39:27.430Z,98717.74
2018-08-28T02:41:54.655Z,98728.39
2018-08-28T02:44:21.864Z,98725.31
2018-08-28T02:46:49.071Z,98725.03
2018-08-28T02:49:16.295Z,98728.47
2018-08-28T02:51:43.496Z,98728.47
2018-08-28T02:54:10.738Z,98732.80
2018-08-28T02:56:37.943Z,98738.03
2018-08-28T02:59:05.246Z,98740.80
2018-08-28T03:01:32.466Z,98747.32
2018-08-28T03:03:59.711Z,98749.97
2018-08-28T03:06:26.958Z,98747.71
2018-08-28T03:08:54.171Z,98748.58
2018-08-28T03:11:21.434Z,98754.42
2018-08-28T03:13:48.648Z,98754.92
2018-08-28T03:16:15.900Z,98754.06
2018-08-28T03:18:44.879Z,98759.05
2018-08-28T03:21:13.463Z,98763.74
2018-08-28T03:23:42.352Z,98765.20
2018-08-28T03:26:09.898Z,98765.14
2018-08-28T03:28:37.117Z,98771.05
2018-08-28T03:31:04.619Z,98768.91
2018-08-28T03:33:31.837Z,98769.83
2018-08-28T03:35:59.043Z,98768.78
2018-08-28T03:38:26.295Z,98777.31
2018-08-28T03:40:53.534Z,98779.17
2018-08-28T03:43:20.763Z,98783.22
2018-08-28T03:45:48.195Z,98782.39
2018-08-28T03:48:15.426Z,98780.67
2018-08-28T03:50:42.654Z,98780.67
2018-08-28T03:53:09.867Z,98778.84
2018-08-28T03:55:37.062Z,98777.95
2018-08-28T03:58:04.313Z,98782.00
2018-08-28T04:00:31.505Z,98786.65
2018-08-28T04:02:58.745Z,98782.67
2018-08-28T04:05:25.972Z,98782.77
2018-08-28T04:07:53.242Z,98791.27
2018-08-28T04:10:20.472Z,98795.84
2018-08-28T04:12:47.691Z,98795.08
2018-08-28T04:15:14.925Z,98796.94
2018-08-28T04:17:45.993Z,98801.44
2018-08-28T04:20:13.247Z,98804.55
2018-08-28T04:22:40.484Z,98809.89
2018-08-28T04:25:07.767Z,98808.53
2018-08-28T04:27:34.977Z,98812.44
2018-08-28T04:30:02.286Z,98813.63
2018-08-28T04:32:29.514Z,98816.34
2018-08-28T04:34:56.737Z,98812.97
2018-08-28T04:37:24.021Z,98818.67
2018-08-28T04:39:51.242Z,98815.89
2018-08-28T04:42:18.462Z,98812.84
2018-08-28T04:44:45.742Z,98812.05
2018-08-28T04:47:12.950Z,98815.03
2018-08-28T04:49:40.178Z,98820.26
2018-08-28T04:52:07.394Z,98810.88
2018-08-28T04:54:34.673Z,98827.18
2018-08-28T04:57:01.946Z,98822.67
2018-08-28T04:59:29.183Z,98832.34
2018-08-28T05:01:56.414Z,98828.44
2018-08-28T05:04:23.690Z,98823.14
2018-08-28T05:06:50.933Z,98832.75
2018-08-28T05:09:18.183Z,98825.09
2018-08-28T05:11:45.464Z,98831.58
2018-08-28T05:14:12.683Z,98839.41
2018-08-28T05:16:39.920Z,98844.47
2018-08-28T05:19:07.194Z,98842.11
2018-08-28T05:21:35.207Z,98843.70
2018-08-28T05:24:02.543Z,98851.13
2018-08-28T05:26:29.777Z,98854.39
2018-08-28T05:28:57.047Z,98858.45
2018-08-28T05:31:24.830Z,98851.98
2018-08-28T05:33:52.172Z,98855.84
2018-08-28T05:36:19.402Z,98852.05
2018-08-28T05:38:46.680Z,98858.37
2018-08-28T05:41:13.933Z,98861.31
2018-08-28T05:43:41.211Z,98862.67
2018-08-28T05:46:08.449Z,98867.66
2018-08-28T05:48:36.298Z,98860.69
2018-08-28T05:51:03.550Z,98859.22
2018-08-28T05:53:30.842Z,98858.56
2018-08-28T05:55:58.358Z,98858.21
2018-08-28T05:58:25.868Z,98863.19
2018-08-28T06:00:53.196Z,98863.33
2018-08-28T06:03:20.567Z,98864.94
2018-08-28T06:05:47.757Z,98866.11
2018-08-28T06:08:15.007Z,98862.65
2018-08-28T06:10:42.289Z,98864.31
2018-08-28T06:13:09.742Z,98865.29
2018-08-28T06:15:37.002Z,98861.66
2018-08-28T06:18:04.361Z,98869.40
2018-08-28T06:20:31.629Z,98866.01
2018-08-28T06:22:58.867Z,98874.80
2018-08-28T06:25:26.131Z,98865.88
2018-08-28T06:27:53.993Z,98868.03
2018-08-28T06:30:21.250Z,98869.31
2018-08-28T06:32:48.522Z,98873.03
2018-08-28T06:35:15.784Z,98874.47
2018-08-28T06:37:43.035Z,98880.28
2018-08-28T06:40:10.361Z,98880.52
2018-08-28T06:42:37.583Z,98882.97
2018-08-28T06:45:04.961Z,98887.52
2018-08-28T06:47:45.027Z,98887.33
2018-08-28T06:50:26.490Z,98881.77
2018-08-28T06:53:09.281Z,98884.60
2018-08-28T06:55:37.915Z,98890.42
2018-08-28T06:58:06.075Z,98885.89
2018-08-28T07:00:34.272Z,98890.92
2018-08-28T07:03:01.919Z,98888.70
2018-08-28T07:05:43.783Z,98893.06
2018-08-28T07:08:26.770Z,98891.12
2018-08-28T07:11:04.092Z,98894.55
2018-08-28T07:13:31.501Z,98894.61
2018-08-28T07:15:58.926Z,98896.50
2018-08-28T07:18:26.585Z,98895.36
2018-08-28T07:20:53.818Z,98899.92
2018-08-28T07:23:21.041Z,98908.22
2018-08-28T07:25:48.319Z,98906.06
2018-08-28T07:28:15.594Z,98911.11
2018-08-28T07:30:43.230Z,98913.78
2018-08-28T07:33:10.437Z,98907.58
2018-08-28T07:35:37.694Z,98918.01
2018-08-28T07:38:04.931Z,98912.56
2018-08-28T07:40:32.154Z,98918.84
2018-08-28T07:42:59.487Z,98917.09
2018-08-28T07:45:27.084Z,98907.01
2018-08-28T07:47:55.487Z,98912.44
2018-08-28T07:50:22.774Z,98910.56
2018-08-28T07:52:49.971Z,98913.20
2018-08-28T07:55:17.190Z,98914.23
2018-08-28T07:57:44.439Z,98913.30
2018-08-28T08:00:11.673Z,98911.37
2018-08-28T08:02:38.938Z,98917.08
2018-08-28T08:05:06.433Z,98903.73
2018-08-28T08:07:33.881Z,98910.06
2018-08-28T08:10:01.090Z,98905.31
2018-08-28T08:12:28.379Z,98913.91
2018-08-28T08:14:55.590Z,98915.88
2018-08-28T08:17:22.853Z,98916.72
2018-08-28T08:19:50.110Z,98917.92
2018-08-28T08:22:17.548Z,98913.33
2018-08-28T08:24:45.265Z,98911.91
2018-08-28T08:27:12.693Z,98918.16
2018-08-28T08:29:39.925Z,98918.30
2018-08-28T08:32:07.286Z,98917.17
2018-08-28T08:34:34.533Z,98914.55
2018-08-28T08:37:01.922Z,98917.13
2018-08-28T08:39:29.146Z,98909.05
2018-08-28T08:41:56.418Z,98907.22
2018-08-28T08:44:23.675Z,98908.54
2018-08-28T08:46:51.002Z,98909.64
2018-08-28T08:49:18.246Z,98907.09
2018-08-28T08:51:45.558Z,98907.86
2018-08-28T08:54:12.810Z,98908.50
2018-08-28T08:56:40.088Z,98901.34
2018-08-28T08:59:07.315Z,98900.39
2018-08-28T09:01:34.566Z,98898.41
2018-08-28T09:04:02.313Z,98901.28
2018-08-28T09:06:29.567Z,98900.56
2018-08-28T09:08:56.795Z,98902.23
2018-08-28T09:11:24.103Z,98904.72
2018-08-28T09:13:51.341Z,98902.26
2018-08-28T09:16:18.582Z,98905.83
2018-08-28T09:18:45.846Z,98905.69
2018-08-28T09:21:13.147Z,98906.35
2018-08-28T09:23:40.386Z,98905.19
2018-08-28T09:26:07.605Z,98905.41
2018-08-28T09:28:34.872Z,98895.03
2018-08-28T09:31:02.094Z,98893.07
2018-08-28T09:33:29.328Z,98888.39
2018-08-28T09:35:56.544Z,98884.42
2018-08-28T09:38:23.857Z,98880.77
2018-08-28T09:40:51.019Z,98871.80
2018-08-28T09:43:18.266Z,98879.19
2018-08-28T09:45:45.477Z,98882.80
2018-08-28T09:48:12.776Z,98892.60
2018-08-28T09:50:40.043Z,98886.41
2018-08-28T09:53:07.255Z,98891.70
2018-08-28T09:55:34.452Z,98891.56
2018-08-28T09:58:01.684Z,98891.82
2018-08-28T10:00:29.183Z,98894.52
2018-08-28T10:02:57.411Z,98898.08
2018-08-28T10:05:24.869Z,98895.20
2018-08-28T10:07:52.209Z,98894.77
2018-08-28T10:10:19.402Z,98900.95
2018-08-28T10:12:46.670Z,98893.22
2018-08-28T10:15:13.901Z,98898.04
2018-08-28T10:17:41.606Z,98893.73
2018-08-28T10:20:08.971Z,98892.74
2018-08-28T10:22:36.255Z,98892.58
2018-08-28T10:25:03.702Z,98894.30
2018-08-28T10:27:30.977Z,98894.32
2018-08-28T10:29:58.302Z,98895.05
2018-08-28T10:32:25.526Z,98890.27
2018-08-28T10:34:52.767Z,98887.84
2018-08-28T10:37:20.067Z,98878.06
2018-08-28T10:39:47.300Z,98874.95
2018-08-28T10:42:14.527Z,98876.84
2018-08-28T10:44:41.781Z,98873.70
2018-08-28T10:47:09.019Z,98876.02
2018-08-28T10:49:36.386Z,98877.23
2018-08-28T10:52:03.719Z,98877.05
2018-08-28T10:54:30.934Z,98876.57
2018-08-28T10:56:58.159Z,98879.56
2018-08-28T10:59:25.465Z,98881.03
2018-08-28T11:01:52.673Z,98877.91
2018-08-28T11:04:19.991Z,98879.38
2018-08-28T11:06:47.258Z,98875.66
2018-08-28T11:09:14.509Z,98882.83
2018-08-28T11:11:41.955Z,98883.63
2018-08-28T11:14:09.263Z,98881.67
2018-08-28T11:16:36.494Z,98885.12
2018-08-28T11:19:03.799Z,98884.51
2018-08-28T11:21:31.126Z,98880.17
2018-08-28T11:23:58.378Z,98887.86
2018-08-28T11:26:25.630Z,98879.02
2018-08-28T11:28:52.882Z,98877.86
2018-08-28T11:31:20.254Z,98877.67
2018-08-28T11:33:47.696Z,98882.70
2018-08-28T11:36:15.190Z,98878.31
2018-08-28T11:38:42.424Z,98873.78
2018-08-28T11:41:09.609Z,98870.55
2018-08-28T11:43:36.870Z,98869.11
2018-08-28T11:46:04.101Z,98864.41
2018-08-28T11:48:31.358Z,98862.67
2018-08-28T11:50:58.581Z,98864.12
2018-08-28T11:53:25.814Z,98867.11
2018-08-28T11:55:53.010Z,98868.88
2018-08-28T11:58:20.329Z,98866.73
2018-08-28T12:00:47.627Z,98857.53
2018-08-28T12:03:14.850Z,98859.44
2018-08-28T12:05:42.063Z,98852.56
2018-08-28T12:08:09.303Z,98848.88
2018-08-28T12:10:36.546Z,98852.72
2018-08-28T12:13:03.878Z,98852.83
2018-08-28T12:15:32.856Z,98858.56
2018-08-28T12:18:00.106Z,98851.29
2018-08-28T12:20:27.414Z,98847.31
2018-08-28T12:22:54.591Z,98852.53
2018-08-28T12:25:21.798Z,98840.72
2018-08-28T12:27:49.073Z,98843.07
2018-08-28T12:30:16.490Z,98836.32
2018-08-28T12:32:43.702Z,98837.00
2018-08-28T12:35:10.957Z,98835.77
2018-08-28T12:37:39.079Z,98832.70
2018-08-28T12:40:06.411Z,98831.70
2018-08-28T12:42:33.673Z,98829.58
2018-08-28T12:45:01.122Z,98825.25
2018-08-28T12:47:28.588Z,98824.45
2018-08-28T12:49:55.813Z,98820.52
2018-08-28T12:52:23.036Z,98813.98
2018-08-28T12:54:50.305Z,98815.55
2018-08-28T12:57:17.823Z,98812.35
2018-08-28T12:59:45.118Z,98820.30
2018-08-28T13:02:12.404Z,98817.13
2018-08-28T13:04:40.438Z,98812.92
2018-08-28T13:07:07.876Z,98817.09
2018-08-28T13:09:35.170Z,98818.74
2018-08-28T13:12:02.407Z,98816.18
2018-08-28T13:14:29.768Z,98815.50
2018-08-28T13:16:56.990Z,98813.39
2018-08-28T13:19:24.278Z,98809.07
2018-08-28T13:21:51.542Z,98819.70
2018-08-28T13:24:18.823Z,98804.51
2018-08-28T13:26:46.074Z,98816.16
2018-08-28T13:29:13.333Z,98807.97
2018-08-28T13:31:40.532Z,98805.80
2018-08-28T13:34:08.085Z,98804.66
2018-08-28T13:36:35.349Z,98807.02
2018-08-28T13:39:03.121Z,98803.16
2018-08-28T13:41:30.399Z,98807.13
2018-08-28T13:43:57.624Z,98803.20
2018-08-28T13:46:24.941Z,98800.89
2018-08-28T13:48:52.199Z,98800.80
2018-08-28T13:51:19.489Z,98793.59
2018-08-28T13:53:46.734Z,98791.88
2018-08-28T13:56:14.161Z,98792.16
2018-08-28T13:58:41.449Z,98790.59
2018-08-28T14:01:08.692Z,98790.47
2018-08-28T14:03:35.974Z,98792.99
2018-08-28T14:06:03.212Z,98792.63
2018-08-28T14:08:30.475Z,98789.35
2018-08-28T14:10:57.710Z,98786.70
2018-08-28T14:13:25.115Z,98791.09
2018-08-28T14:15:52.257Z,98777.86
2018-08-28T14:18:19.529Z,98778.95
2018-08-28T14:20:46.762Z,98780.34
2018-08-28T14:23:14.037Z,98777.29
2018-08-28T14:25:41.269Z,98776.17
2018-08-28T14:28:08.486Z,98784.14
2018-08-28T14:30:35.827Z,98776.17
2018-08-28T14:33:03.186Z,98777.73
2018-08-28T14:35:30.703Z,98771.41
2018-08-28T14:37:57.889Z,98779.16
2018-08-28T14:40:25.166Z,98781.48
2018-08-28T14:42:54.377Z,98777.16
2018-08-28T14:45:27.945Z,98782.17
2018-08-28T14:47:55.742Z,98789.50
2018-08-28T14:50:30.549Z,98772.28
2018-08-28T14:52:59.099Z,98773.70
2018-08-28T14:55:34.814Z,98771.67
2018-08-28T14:58:08.866Z,98767.88
2018-08-28T15:00:36.167Z,98761.16
2018-08-28T15:03:03.414Z,98758.34
2018-08-28T15:05:30.721Z,98759.95
2018-08-28T15:07:57.981Z,98757.00
2018-08-28T15:10:26.104Z,98753.22
2018-08-28T15:12:53.326Z,98759.82
2018-08-28T15:15:20.590Z,98755.30
2018-08-28T15:17:47.833Z,98759.80
2018-08-28T15:20:15.128Z,98762.77
2018-08-28T15:22:42.363Z,98760.98
2018-08-28T15:25:12.458Z,98756.75
2018-08-28T15:27:39.838Z,98764.12
2018-08-28T15:30:07.061Z,98766.11
2018-08-28T15:32:34.389Z,98762.33
2018-08-28T15:35:02.839Z,98766.36
2018-08-28T15:37:30.168Z,98759.20
2018-08-28T15:39:57.419Z,98766.64
2018-08-28T15:42:24.798Z,98757.94
2018-08-28T15:44:52.034Z,98755.33
2018-08-28T15:47:19.528Z,98752.81
2018-08-28T15:49:46.763Z,98749.50
2018-08-28T15:52:14.051Z,98756.17
2018-08-28T15:54:41.345Z,98756.27
2018-08-28T15:57:08.748Z,98751.16
2018-08-28T15:59:36.531Z,98746.27
2018-08-28T16:02:03.911Z,98748.22
2018-08-28T16:04:31.105Z,98753.28
2018-08-28T16:06:58.376Z,98751.86
2018-08-28T16:09:25.632Z,98748.98
2018-08-28T16:11:52.919Z,98752.34
2018-08-28T16:14:20.154Z,98747.92
2018-08-28T16:16:47.415Z,98743.64
2018-08-28T16:19:14.819Z,98745.53
2018-08-28T16:21:44.807Z,98740.02
2018-08-28T16:24:12.126Z,98744.70
2018-08-28T16:26:39.534Z,98735.23
2018-08-28T16:29:07.116Z,98739.88
2018-08-28T16:31:34.592Z,98727.70
2018-08-28T16:34:02.159Z,98736.88
2018-08-28T16:36:30.144Z,98736.39
2018-08-28T16:38:57.524Z,98733.80
2018-08-28T16:41:24.815Z,98732.15
2018-08-28T16:43:52.015Z,98725.98
2018-08-28T16:46:19.272Z,98720.30
2018-08-28T16:48:46.511Z,98720.78
2018-08-28T16:51:13.772Z,98719.45
2018-08-28T16:53:41.013Z,98722.52
2018-08-28T16:56:08.331Z,98721.40
2018-08-28T16:58:35.577Z,98720.80
2018-08-28T17:01:02.821Z,98721.93
2018-08-28T17:03:30.070Z,98713.08
2018-08-28T17:05:57.317Z,98711.37
2018-08-28T17:08:24.582Z,98709.37
2018-08-28T17:10:51.819Z,98712.34
2018-08-28T17:13:19.081Z,98713.46
2018-08-28T17:15:46.319Z,98714.20
2018-08-28T17:18:13.667Z,98705.65
2018-08-28T17:20:40.997Z,98708.50
2018-08-28T17:23:08.407Z,98706.45
2018-08-28T17:25:35.635Z,98710.12
2018-08-28T17:28:02.958Z,98713.23
2018-08-28T17:30:30.205Z,98717.91
2018-08-28T17:32:57.500Z,98715.63
2018-08-28T17:35:25.435Z,98720.61
2018-08-28T17:37:52.794Z,98720.57
2018-08-28T17:40:20.985Z,98715.02
2018-08-28T17:42:48.455Z,98719.84
2018-08-28T17:45:15.851Z,98721.47
2018-08-28T17:47:43.284Z,98716.81
2018-08-28T17:50:10.778Z,98724.53
2018-08-28T17:52:38.304Z,98719.70
2018-08-28T17:55:05.846Z,98724.16
2018-08-28T17:57:33.799Z,98725.41
2018-08-28T18:00:01.054Z,98729.31
2018-08-28T18:02:28.294Z,98730.84
2018-08-28T18:04:55.876Z,98731.91
2018-08-28T18:07:23.212Z,98736.28
2018-08-28T18:09:50.583Z,98737.71
2018-08-28T18:12:18.121Z,98739.71
2018-08-28T18:14:45.588Z,98740.66
2018-08-28T18:17:12.915Z,98738.58
2018-08-28T18:19:40.278Z,98742.09
2018-08-28T18:22:07.743Z,98740.34
2018-08-28T18:24:35.330Z,98740.97
2018-08-28T18:27:02.587Z,98745.13
2018-08-28T18:29:30.044Z,98749.34
2018-08-28T18:31:57.390Z,98757.22
2018-08-28T18:34:24.859Z,98752.83
2018-08-28T18:36:52.264Z,98758.87
2018-08-28T18:39:19.630Z,98756.19
2018-08-28T18:41:47.019Z,98758.95
2018-08-28T18:44:14.370Z,98761.64
2018-08-28T18:46:41.749Z,98763.19
2018-08-28T18:49:09.118Z,98764.08
2018-08-28T18:51:36.378Z,98765.53
2018-08-28T18:54:03.786Z,98767.52
2018-08-28T18:56:31.031Z,98763.82
2018-08-28T18:58:58.453Z,98760.39
2018-08-28T19:01:25.963Z,98769.70
2018-08-28T19:03:53.421Z,98776.26
2018-08-28T19:06:20.762Z,98778.10
2018-08-28T19:08:48.318Z,98770.91
2018-08-28T19:11:15.784Z,98773.59
2018-08-28T19:13:43.399Z,98766.08
2018-08-28T19:16:11.415Z,98770.02
2018-08-28T19:18:38.858Z,98767.23
2018-08-28T19:21:06.933Z,98765.28
2018-08-28T19:23:34.448Z,98769.23
2018-08-28T19:26:01.912Z,98769.53
2018-08-28T19:28:29.247Z,98765.06
2018-08-28T19:30:56.808Z,98759.06
2018-08-28T19:33:24.470Z,98752.54
2018-08-28T19:35:51.980Z,98755.97
2018-08-28T19:38:19.420Z,98757.29
2018-08-28T19:40:46.924Z,98760.33
2018-08-28T19:43:14.388Z,98758.77
2018-08-28T19:45:42.430Z,98755.94
2018-08-28T19:48:09.707Z,98758.45
2018-08-28T19:50:36.979Z,98761.01
2018-08-28T19:53:04.426Z,98759.50
2018-08-28T19:55:31.678Z,98752.90
2018-08-28T19:58:00.041Z,98752.84
2018-08-28T20:00:27.312Z,98753.08
2018-08-28T20:02:54.761Z,98751.30
2018-08-28T20:05:22.073Z,98751.08
2018-08-28T20:07:49.419Z,98753.47
2018-08-28T20:10:16.779Z,98747.14
2018-08-28T20:12:44.327Z,98755.50
2018-08-28T20:15:11.624Z,98754.17
2018-08-28T20:17:39.099Z,98748.05
2018-08-28T20:20:06.443Z,98750.78
2018-08-28T20:22:33.675Z,98754.38
2018-08-28T20:25:00.986Z,98756.44
2018-08-28T20:27:28.280Z,98750.03
2018-08-28T20:29:55.626Z,98742.45
2018-08-28T20:32:22.811Z,98740.34
2018-08-28T20:34:50.028Z,98739.87
2018-08-28T20:37:17.261Z,98742.69
2018-08-28T20:39:44.536Z,98742.89
2018-08-28T20:42:11.767Z,98736.63
2018-08-28T20:44:38.986Z,98741.56
2018-08-28T20:47:06.236Z,98733.75
2018-08-28T20:49:33.469Z,98730.82
2018-08-28T20:52:00.711Z,98722.07
2018-08-28T20:54:27.950Z,98719.25
2018-08-28T20:56:55.182Z,98721.68
2018-08-28T20:59:22.404Z,98720.19
2018-08-28T21:01:49.618Z,98725.12
2018-08-28T21:04:16.844Z,98726.53
2018-08-28T21:06:44.088Z,98730.20
2018-08-28T21:09:11.377Z,98724.15
2018-08-28T21:11:38.615Z,98726.34
2018-08-28T21:14:05.872Z,98729.70
2018-08-28T21:16:33.081Z,98723.57
2018-08-28T21:19:00.345Z,98725.37
2018-08-28T21:21:27.586Z,98726.62
2018-08-28T21:23:54.790Z,98735.68
2018-08-28T21:26:22.024Z,98732.44
2018-08-28T21:28:49.321Z,98727.59
2018-08-28T21:31:16.524Z,98729.08
2018-08-28T21:33:43.751Z,98724.83
2018-08-28T21:36:10.978Z,98727.13
2018-08-28T21:38:38.194Z,98726.84
2018-08-28T21:41:05.419Z,98720.36
2018-08-28T21:43:32.654Z,98716.53
2018-08-28T21:45:59.941Z,98721.95
2018-08-28T21:48:27.168Z,98714.08
2018-08-28T21:50:54.433Z,98713.75
2018-08-28T21:53:21.639Z,98714.81
2018-08-28T21:55:48.888Z,98713.55
2018-08-28T21:58:16.152Z,98708.95
2018-08-28T22:00:43.477Z,98708.03
2018-08-28T22:03:10.686Z,98704.31
2018-08-28T22:05:37.949Z,98702.28
2018-08-28T22:08:05.467Z,98704.66
2018-08-28T22:10:33.091Z,98699.84
2018-08-28T22:13:00.317Z,98696.76
2018-08-28T22:15:27.591Z,98690.20
2018-08-28T22:17:55.097Z,98694.58
2018-08-28T22:20:22.363Z,98693.31
2018-08-28T22:22:50.014Z,98694.59
2018-08-28T22:25:17.273Z,98697.14
2018-08-28T22:27:44.473Z,98690.34
2018-08-28T22:30:11.934Z,98692.67
2018-08-28T22:32:40.052Z,98678.88
2018-08-28T22:35:07.325Z,98682.45
2018-08-28T22:37:34.586Z,98681.38
2018-08-28T22:40:02.030Z,98681.30
2018-08-28T22:42:29.223Z,98679.83
2018-08-28T22:44:56.438Z,98682.02
2018-08-28T22:47:23.624Z,98675.06
2018-08-28T22:49:50.846Z,98674.05
2018-08-28T22:52:18.206Z,98670.94
2018-08-28T22:54:45.486Z,98670.22
2018-08-28T22:57:12.702Z,98673.39
2018-08-28T22:59:39.954Z,98669.23
2018-08-28T23:02:07.209Z,98665.33
2018-08-28T23:04:34.501Z,98662.41
2018-08-28T23:07:01.758Z,98661.08
2018-08-28T23:09:28.991Z,98660.53
2018-08-28T23:11:56.223Z,98654.30
2018-08-28T23:14:23.493Z,98653.78
2018-08-28T23:16:50.882Z,98656.05
2018-08-28T23:19:18.106Z,98657.17
2018-08-28T23:21:45.333Z,98649.28
2018-08-28T23:24:12.574Z,98643.29
2018-08-28T23:26:39.822Z,98645.67
2018-08-28T23:29:07.081Z,98637.17
2018-08-28T23:31:34.666Z,98649.19
2018-08-28T23:34:01.947Z,98650.52
2018-08-28T23:36:29.201Z,98638.38
2018-08-28T23:38:56.493Z,98639.84
2018-08-28T23:41:23.753Z,98631.45
2018-08-28T23:43:51.004Z,98633.83
2018-08-28T23:46:18.497Z,98626.48
2018-08-28T23:48:45.701Z,98625.87
2018-08-28T23:51:12.975Z,98621.30
2018-08-28T23:53:40.207Z,98623.22
2018-08-28T23:56:07.754Z,98617.62
2018-08-28T23:58:34.977Z,98621.07
